sensor_id;sensor_type;location;lat;lon;timestamp;temperature;humidity
50690;DHT22;54375;48.298;11.238;2022-09-13T00:02:39;10.50;87.10
50690;DHT22;54375;48.298;11.238;2022-09-13T00:05:41;10.40;87.50
50690;DHT22;54375;48.298;11.238;2022-09-13T00:08:42;10.40;88.20
50690;DHT22;54375;48.298;11.238;2022-09-13T00:11:44;10.30;88.40
50690;DHT22;54375;48.298;11.238;2022-09-13T00:14:45;10.30;88.70
50690;DHT22;54375;48.298;11.238;2022-09-13T00:17:45;10.20;89.00
50690;DHT22;54375;48.298;11.238;2022-09-13T00:20:46;10.20;89.40
50690;DHT22;54375;48.298;11.238;2022-09-13T00:23:50;10.20;89.60
50690;DHT22;54375;48.298;11.238;2022-09-13T00:26:52;10.10;89.50
50690;DHT22;54375;48.298;11.238;2022-09-13T00:29:53;10.10;89.70
50690;DHT22;54375;48.298;11.238;2022-09-13T00:32:54;10.10;90.10
50690;DHT22;54375;48.298;11.238;2022-09-13T00:35:54;10.10;90.30
50690;DHT22;54375;48.298;11.238;2022-09-13T00:38:55;10.10;90.60
50690;DHT22;54375;48.298;11.238;2022-09-13T00:41:57;10.10;90.60
50690;DHT22;54375;48.298;11.238;2022-09-13T00:44:59;10.10;90.40
50690;DHT22;54375;48.298;11.238;2022-09-13T00:48:04;10.00;90.00
50690;DHT22;54375;48.298;11.238;2022-09-13T00:51:07;10.00;89.40
50690;DHT22;54375;48.298;11.238;2022-09-13T00:54:10;9.90;89.00
50690;DHT22;54375;48.298;11.238;2022-09-13T00:57:15;9.90;88.90
50690;DHT22;54375;48.298;11.238;2022-09-13T01:00:18;9.80;88.50
50690;DHT22;54375;48.298;11.238;2022-09-13T01:03:21;9.80;88.60
50690;DHT22;54375;48.298;11.238;2022-09-13T01:06:27;9.70;89.50
50690;DHT22;54375;48.298;11.238;2022-09-13T01:09:31;9.70;89.10
50690;DHT22;54375;48.298;11.238;2022-09-13T01:12:41;9.70;89.20
50690;DHT22;54375;48.298;11.238;2022-09-13T01:15:44;9.70;89.10
50690;DHT22;54375;48.298;11.238;2022-09-13T01:18:45;9.60;89.10
50690;DHT22;54375;48.298;11.238;2022-09-13T01:22:06;9.60;89.10
50690;DHT22;54375;48.298;11.238;2022-09-13T01:25:41;9.60;88.90
50690;DHT22;54375;48.298;11.238;2022-09-13T01:32:48;9.50;89.00
50690;DHT22;54375;48.298;11.238;2022-09-13T01:36:09;9.40;89.10
50690;DHT22;54375;48.298;11.238;2022-09-13T01:39:15;9.40;89.60
50690;DHT22;54375;48.298;11.238;2022-09-13T01:42:24;9.40;89.80
50690;DHT22;54375;48.298;11.238;2022-09-13T01:45:36;9.40;89.80
50690;DHT22;54375;48.298;11.238;2022-09-13T01:48:52;9.30;89.50
50690;DHT22;54375;48.298;11.238;2022-09-13T01:51:58;9.30;89.20
50690;DHT22;54375;48.298;11.238;2022-09-13T01:55:04;9.20;88.90
50690;DHT22;54375;48.298;11.238;2022-09-13T01:58:16;9.20;89.10
50690;DHT22;54375;48.298;11.238;2022-09-13T02:01:22;9.20;89.40
50690;DHT22;54375;48.298;11.238;2022-09-13T02:04:28;9.10;89.20
50690;DHT22;54375;48.298;11.238;2022-09-13T02:07:33;9.10;89.20
50690;DHT22;54375;48.298;11.238;2022-09-13T02:10:38;9.10;89.10
50690;DHT22;54375;48.298;11.238;2022-09-13T02:13:46;9.10;89.20
50690;DHT22;54375;48.298;11.238;2022-09-13T02:16:50;9.10;89.20
50690;DHT22;54375;48.298;11.238;2022-09-13T02:19:56;9.00;89.00
50690;DHT22;54375;48.298;11.238;2022-09-13T02:23:00;9.00;88.80
50690;DHT22;54375;48.298;11.238;2022-09-13T02:26:03;9.00;88.70
50690;DHT22;54375;48.298;11.238;2022-09-13T02:29:08;8.90;88.70
50690;DHT22;54375;48.298;11.238;2022-09-13T02:32:13;8.90;88.90
50690;DHT22;54375;48.298;11.238;2022-09-13T02:35:19;8.90;89.20
50690;DHT22;54375;48.298;11.238;2022-09-13T02:38:23;8.90;89.50
50690;DHT22;54375;48.298;11.238;2022-09-13T02:41:29;8.90;89.70
50690;DHT22;54375;48.298;11.238;2022-09-13T02:44:36;8.90;89.90
50690;DHT22;54375;48.298;11.238;2022-09-13T02:47:43;8.80;90.00
50690;DHT22;54375;48.298;11.238;2022-09-13T02:50:54;8.80;90.10
50690;DHT22;54375;48.298;11.238;2022-09-13T02:54:08;8.80;90.10
50690;DHT22;54375;48.298;11.238;2022-09-13T02:57:15;8.80;90.20
50690;DHT22;54375;48.298;11.238;2022-09-13T03:00:16;8.80;90.20
50690;DHT22;54375;48.298;11.238;2022-09-13T03:03:17;8.70;90.30
50690;DHT22;54375;48.298;11.238;2022-09-13T03:06:23;8.80;90.30
50690;DHT22;54375;48.298;11.238;2022-09-13T03:09:24;8.70;90.40
50690;DHT22;54375;48.298;11.238;2022-09-13T03:12:39;8.70;90.30
50690;DHT22;54375;48.298;11.238;2022-09-13T03:15:52;8.70;90.40
50690;DHT22;54375;48.298;11.238;2022-09-13T03:19:07;8.60;90.30
50690;DHT22;54375;48.298;11.238;2022-09-13T03:22:26;8.60;90.40
50690;DHT22;54375;48.298;11.238;2022-09-13T03:25:38;8.60;90.60
50690;DHT22;54375;48.298;11.238;2022-09-13T03:28:53;8.60;90.70
50690;DHT22;54375;48.298;11.238;2022-09-13T03:32:04;8.60;90.90
50690;DHT22;54375;48.298;11.238;2022-09-13T03:35:13;8.50;90.90
50690;DHT22;54375;48.298;11.238;2022-09-13T03:38:21;8.50;90.80
50690;DHT22;54375;48.298;11.238;2022-09-13T03:41:29;8.60;90.80
50690;DHT22;54375;48.298;11.238;2022-09-13T03:44:33;8.50;90.70
50690;DHT22;54375;48.298;11.238;2022-09-13T03:47:39;8.50;90.40
50690;DHT22;54375;48.298;11.238;2022-09-13T03:50:40;8.50;90.40
50690;DHT22;54375;48.298;11.238;2022-09-13T03:53:47;8.50;90.70
50690;DHT22;54375;48.298;11.238;2022-09-13T03:57:09;8.50;90.40
50690;DHT22;54375;48.298;11.238;2022-09-13T04:00:12;8.50;90.30
50690;DHT22;54375;48.298;11.238;2022-09-13T04:03:14;8.40;90.30
50690;DHT22;54375;48.298;11.238;2022-09-13T04:06:14;8.40;90.30
50690;DHT22;54375;48.298;11.238;2022-09-13T04:09:16;8.40;90.40
50690;DHT22;54375;48.298;11.238;2022-09-13T04:12:18;8.40;90.40
50690;DHT22;54375;48.298;11.238;2022-09-13T04:15:18;8.40;90.40
50690;DHT22;54375;48.298;11.238;2022-09-13T04:18:19;8.40;91.00
50690;DHT22;54375;48.298;11.238;2022-09-13T04:21:20;8.40;91.50
50690;DHT22;54375;48.298;11.238;2022-09-13T04:24:24;8.40;91.50
50690;DHT22;54375;48.298;11.238;2022-09-13T04:27:25;8.50;91.60
50690;DHT22;54375;48.298;11.238;2022-09-13T04:30:26;8.50;91.50
50690;DHT22;54375;48.298;11.238;2022-09-13T04:33:27;8.50;91.40
50690;DHT22;54375;48.298;11.238;2022-09-13T04:36:28;8.40;91.20
50690;DHT22;54375;48.298;11.238;2022-09-13T04:39:30;8.40;91.30
50690;DHT22;54375;48.298;11.238;2022-09-13T04:42:31;8.40;91.40
50690;DHT22;54375;48.298;11.238;2022-09-13T04:45:32;8.40;91.50
50690;DHT22;54375;48.298;11.238;2022-09-13T04:48:32;8.50;91.50
50690;DHT22;54375;48.298;11.238;2022-09-13T04:51:33;8.40;91.40
50690;DHT22;54375;48.298;11.238;2022-09-13T04:54:35;8.40;91.30
50690;DHT22;54375;48.298;11.238;2022-09-13T04:57:36;8.40;91.10
50690;DHT22;54375;48.298;11.238;2022-09-13T05:00:37;8.40;91.00
50690;DHT22;54375;48.298;11.238;2022-09-13T05:03:37;8.30;90.80
50690;DHT22;54375;48.298;11.238;2022-09-13T05:06:38;8.30;90.70
50690;DHT22;54375;48.298;11.238;2022-09-13T05:09:40;8.30;90.80
50690;DHT22;54375;48.298;11.238;2022-09-13T05:12:41;8.30;90.80
50690;DHT22;54375;48.298;11.238;2022-09-13T05:15:41;8.30;90.90
50690;DHT22;54375;48.298;11.238;2022-09-13T05:18:42;8.40;91.00
50690;DHT22;54375;48.298;11.238;2022-09-13T05:21:43;8.40;91.30
50690;DHT22;54375;48.298;11.238;2022-09-13T05:24:45;8.50;91.70
50690;DHT22;54375;48.298;11.238;2022-09-13T05:27:45;8.60;91.70
50690;DHT22;54375;48.298;11.238;2022-09-13T05:30:54;8.60;91.70
50690;DHT22;54375;48.298;11.238;2022-09-13T05:33:56;8.60;91.70
50690;DHT22;54375;48.298;11.238;2022-09-13T05:36:57;8.70;92.20
50690;DHT22;54375;48.298;11.238;2022-09-13T05:39:59;8.80;92.20
50690;DHT22;54375;48.298;11.238;2022-09-13T05:43:00;8.90;92.20
50690;DHT22;54375;48.298;11.238;2022-09-13T05:46:01;8.90;92.30
50690;DHT22;54375;48.298;11.238;2022-09-13T05:49:02;9.00;91.90
50690;DHT22;54375;48.298;11.238;2022-09-13T05:52:03;9.00;91.80
50690;DHT22;54375;48.298;11.238;2022-09-13T05:55:06;9.10;91.80
50690;DHT22;54375;48.298;11.238;2022-09-13T05:58:07;9.20;91.90
50690;DHT22;54375;48.298;11.238;2022-09-13T06:01:09;9.20;92.00
50690;DHT22;54375;48.298;11.238;2022-09-13T06:04:10;9.40;92.10
50690;DHT22;54375;48.298;11.238;2022-09-13T06:07:11;9.60;92.20
50690;DHT22;54375;48.298;11.238;2022-09-13T06:10:13;9.80;92.30
50690;DHT22;54375;48.298;11.238;2022-09-13T06:13:14;10.00;92.40
50690;DHT22;54375;48.298;11.238;2022-09-13T06:16:15;10.20;92.20
50690;DHT22;54375;48.298;11.238;2022-09-13T06:19:15;10.40;92.40
50690;DHT22;54375;48.298;11.238;2022-09-13T06:22:16;10.60;92.60
50690;DHT22;54375;48.298;11.238;2022-09-13T06:25:18;10.90;92.50
50690;DHT22;54375;48.298;11.238;2022-09-13T06:28:19;11.10;92.20
50690;DHT22;54375;48.298;11.238;2022-09-13T06:31:22;11.30;92.10
50690;DHT22;54375;48.298;11.238;2022-09-13T06:34:23;11.50;92.00
50690;DHT22;54375;48.298;11.238;2022-09-13T06:37:24;11.70;92.00
50690;DHT22;54375;48.298;11.238;2022-09-13T06:40:26;11.90;91.70
50690;DHT22;54375;48.298;11.238;2022-09-13T06:43:27;12.10;91.50
50690;DHT22;54375;48.298;11.238;2022-09-13T06:46:29;12.40;91.60
50690;DHT22;54375;48.298;11.238;2022-09-13T06:49:30;12.60;91.30
50690;DHT22;54375;48.298;11.238;2022-09-13T06:52:31;12.80;91.10
50690;DHT22;54375;48.298;11.238;2022-09-13T06:55:33;13.10;91.10
50690;DHT22;54375;48.298;11.238;2022-09-13T06:58:35;13.40;91.00
50690;DHT22;54375;48.298;11.238;2022-09-13T07:01:37;13.70;90.50
50690;DHT22;54375;48.298;11.238;2022-09-13T07:04:38;14.00;90.10
50690;DHT22;54375;48.298;11.238;2022-09-13T07:07:39;14.30;88.90
50690;DHT22;54375;48.298;11.238;2022-09-13T07:10:41;14.60;87.10
50690;DHT22;54375;48.298;11.238;2022-09-13T07:13:42;15.00;86.30
50690;DHT22;54375;48.298;11.238;2022-09-13T07:16:46;15.30;85.70
50690;DHT22;54375;48.298;11.238;2022-09-13T07:19:47;15.70;82.70
50690;DHT22;54375;48.298;11.238;2022-09-13T07:22:48;16.00;81.00
50690;DHT22;54375;48.298;11.238;2022-09-13T07:25:54;16.40;80.80
50690;DHT22;54375;48.298;11.238;2022-09-13T07:28:57;16.80;79.00
50690;DHT22;54375;48.298;11.238;2022-09-13T07:31:58;17.10;77.50
50690;DHT22;54375;48.298;11.238;2022-09-13T07:34:58;17.30;75.10
50690;DHT22;54375;48.298;11.238;2022-09-13T07:37:59;17.60;75.40
50690;DHT22;54375;48.298;11.238;2022-09-13T07:41:02;17.80;73.80
50690;DHT22;54375;48.298;11.238;2022-09-13T07:44:03;18.10;73.30
50690;DHT22;54375;48.298;11.238;2022-09-13T07:47:04;18.30;71.70
50690;DHT22;54375;48.298;11.238;2022-09-13T07:50:06;18.70;71.00
50690;DHT22;54375;48.298;11.238;2022-09-13T07:53:06;18.90;66.50
50690;DHT22;54375;48.298;11.238;2022-09-13T07:56:10;19.00;67.50
50690;DHT22;54375;48.298;11.238;2022-09-13T07:59:13;19.10;65.30
50690;DHT22;54375;48.298;11.238;2022-09-13T08:02:15;19.10;65.00
50690;DHT22;54375;48.298;11.238;2022-09-13T08:05:17;19.30;66.90
50690;DHT22;54375;48.298;11.238;2022-09-13T08:08:17;19.50;65.70
50690;DHT22;54375;48.298;11.238;2022-09-13T08:11:22;19.60;65.60
50690;DHT22;54375;48.298;11.238;2022-09-13T08:14:23;19.70;65.60
50690;DHT22;54375;48.298;11.238;2022-09-13T08:17:23;19.70;64.10
50690;DHT22;54375;48.298;11.238;2022-09-13T08:20:24;19.80;63.90
50690;DHT22;54375;48.298;11.238;2022-09-13T08:23:25;19.80;63.00
50690;DHT22;54375;48.298;11.238;2022-09-13T08:26:29;19.80;64.10
50690;DHT22;54375;48.298;11.238;2022-09-13T08:29:29;20.00;63.70
50690;DHT22;54375;48.298;11.238;2022-09-13T08:32:30;20.20;64.00
50690;DHT22;54375;48.298;11.238;2022-09-13T08:35:31;20.50;63.50
50690;DHT22;54375;48.298;11.238;2022-09-13T08:38:32;20.80;63.20
50690;DHT22;54375;48.298;11.238;2022-09-13T08:41:49;21.00;61.20
50690;DHT22;54375;48.298;11.238;2022-09-13T08:44:55;21.10;60.00
50690;DHT22;54375;48.298;11.238;2022-09-13T08:48:02;21.30;61.10
50690;DHT22;54375;48.298;11.238;2022-09-13T08:51:08;21.60;61.40
50690;DHT22;54375;48.298;11.238;2022-09-13T08:54:12;21.90;59.70
50690;DHT22;54375;48.298;11.238;2022-09-13T08:57:18;21.90;57.40
50690;DHT22;54375;48.298;11.238;2022-09-13T09:00:24;21.70;58.20
50690;DHT22;54375;48.298;11.238;2022-09-13T09:03:37;21.70;58.40
50690;DHT22;54375;48.298;11.238;2022-09-13T09:06:41;21.80;58.30
50690;DHT22;54375;48.298;11.238;2022-09-13T09:09:45;21.90;57.50
50690;DHT22;54375;48.298;11.238;2022-09-13T09:12:51;22.10;57.10
50690;DHT22;54375;48.298;11.238;2022-09-13T09:15:58;22.20;57.30
50690;DHT22;54375;48.298;11.238;2022-09-13T09:19:10;22.50;56.40
50690;DHT22;54375;48.298;11.238;2022-09-13T09:22:17;22.70;55.80
50690;DHT22;54375;48.298;11.238;2022-09-13T09:25:19;22.80;55.80
50690;DHT22;54375;48.298;11.238;2022-09-13T09:28:23;22.90;55.30
50690;DHT22;54375;48.298;11.238;2022-09-13T09:31:31;23.00;55.10
50690;DHT22;54375;48.298;11.238;2022-09-13T09:34:47;23.30;56.60
50690;DHT22;54375;48.298;11.238;2022-09-13T09:38:18;23.60;57.20
50690;DHT22;54375;48.298;11.238;2022-09-13T09:41:25;23.80;53.70
50690;DHT22;54375;48.298;11.238;2022-09-13T09:44:30;24.00;53.80
50690;DHT22;54375;48.298;11.238;2022-09-13T09:47:40;24.10;52.40
50690;DHT22;54375;48.298;11.238;2022-09-13T09:50:46;24.30;53.10
50690;DHT22;54375;48.298;11.238;2022-09-13T09:53:52;24.60;52.00
50690;DHT22;54375;48.298;11.238;2022-09-13T09:56:54;24.70;51.00
50690;DHT22;54375;48.298;11.238;2022-09-13T10:00:09;25.10;52.10
50690;DHT22;54375;48.298;11.238;2022-09-13T10:03:16;25.50;51.10
50690;DHT22;54375;48.298;11.238;2022-09-13T10:06:20;25.80;50.70
50690;DHT22;54375;48.298;11.238;2022-09-13T10:09:21;26.20;50.20
50690;DHT22;54375;48.298;11.238;2022-09-13T10:12:26;26.60;48.60
50690;DHT22;54375;48.298;11.238;2022-09-13T10:15:30;26.40;47.10
50690;DHT22;54375;48.298;11.238;2022-09-13T10:18:32;26.40;48.00
50690;DHT22;54375;48.298;11.238;2022-09-13T10:21:33;26.40;48.10
50690;DHT22;54375;48.298;11.238;2022-09-13T10:24:33;26.50;47.60
50690;DHT22;54375;48.298;11.238;2022-09-13T10:27:36;26.70;47.50
50690;DHT22;54375;48.298;11.238;2022-09-13T10:30:48;27.10;47.70
50690;DHT22;54375;48.298;11.238;2022-09-13T10:33:57;27.60;47.10
50690;DHT22;54375;48.298;11.238;2022-09-13T10:37:01;27.90;45.50
50690;DHT22;54375;48.298;11.238;2022-09-13T10:40:04;28.00;44.90
50690;DHT22;54375;48.298;11.238;2022-09-13T10:43:14;28.20;44.70
50690;DHT22;54375;48.298;11.238;2022-09-13T10:46:21;28.10;43.90
50690;DHT22;54375;48.298;11.238;2022-09-13T10:49:47;28.00;43.00
50690;DHT22;54375;48.298;11.238;2022-09-13T10:52:49;27.90;43.80
50690;DHT22;54375;48.298;11.238;2022-09-13T10:55:52;27.90;44.80
50690;DHT22;54375;48.298;11.238;2022-09-13T10:59:14;28.00;44.70
50690;DHT22;54375;48.298;11.238;2022-09-13T11:02:31;27.90;42.00
50690;DHT22;54375;48.298;11.238;2022-09-13T11:05:40;27.90;43.40
50690;DHT22;54375;48.298;11.238;2022-09-13T11:08:49;28.00;43.00
50690;DHT22;54375;48.298;11.238;2022-09-13T11:11:59;28.10;43.00
50690;DHT22;54375;48.298;11.238;2022-09-13T11:15:10;28.30;42.20
50690;DHT22;54375;48.298;11.238;2022-09-13T11:18:41;28.20;41.60
50690;DHT22;54375;48.298;11.238;2022-09-13T11:21:47;28.00;43.00
50690;DHT22;54375;48.298;11.238;2022-09-13T11:25:02;27.90;43.10
50690;DHT22;54375;48.298;11.238;2022-09-13T11:28:13;28.10;44.10
50690;DHT22;54375;48.298;11.238;2022-09-13T11:31:32;27.60;43.10
50690;DHT22;54375;48.298;11.238;2022-09-13T11:34:43;27.50;44.80
50690;DHT22;54375;48.298;11.238;2022-09-13T11:37:52;27.80;44.20
50690;DHT22;54375;48.298;11.238;2022-09-13T11:40:59;27.90;43.80
50690;DHT22;54375;48.298;11.238;2022-09-13T11:44:31;27.80;44.30
50690;DHT22;54375;48.298;11.238;2022-09-13T11:47:43;28.00;44.80
50690;DHT22;54375;48.298;11.238;2022-09-13T11:50:57;28.50;43.90
50690;DHT22;54375;48.298;11.238;2022-09-13T11:54:12;28.80;41.50
50690;DHT22;54375;48.298;11.238;2022-09-13T11:57:20;28.50;39.80
50690;DHT22;54375;48.298;11.238;2022-09-13T12:00:23;28.40;41.60
50690;DHT22;54375;48.298;11.238;2022-09-13T12:03:26;28.90;42.70
50690;DHT22;54375;48.298;11.238;2022-09-13T12:06:35;29.50;41.70
50690;DHT22;54375;48.298;11.238;2022-09-13T12:09:43;29.90;41.90
50690;DHT22;54375;48.298;11.238;2022-09-13T12:12:48;29.70;39.30
50690;DHT22;54375;48.298;11.238;2022-09-13T12:15:52;29.10;39.10
50690;DHT22;54375;48.298;11.238;2022-09-13T12:18:56;29.20;40.20
50690;DHT22;54375;48.298;11.238;2022-09-13T12:22:00;29.40;40.30
50690;DHT22;54375;48.298;11.238;2022-09-13T12:25:06;29.10;39.70
50690;DHT22;54375;48.298;11.238;2022-09-13T12:28:16;29.20;41.00
50690;DHT22;54375;48.298;11.238;2022-09-13T12:31:22;29.30;41.00
50690;DHT22;54375;48.298;11.238;2022-09-13T12:34:26;29.20;41.30
50690;DHT22;54375;48.298;11.238;2022-09-13T12:37:56;28.80;39.30
50690;DHT22;54375;48.298;11.238;2022-09-13T12:41:11;28.50;38.40
50690;DHT22;54375;48.298;11.238;2022-09-13T12:48:13;28.70;39.60
50690;DHT22;54375;48.298;11.238;2022-09-13T12:51:28;29.30;39.10
50690;DHT22;54375;48.298;11.238;2022-09-13T12:54:50;30.00;38.40
50690;DHT22;54375;48.298;11.238;2022-09-13T12:57:59;30.50;38.30
50690;DHT22;54375;48.298;11.238;2022-09-13T13:01:09;30.90;37.20
50690;DHT22;54375;48.298;11.238;2022-09-13T13:04:14;30.90;36.70
50690;DHT22;54375;48.298;11.238;2022-09-13T13:07:19;30.90;36.10
50690;DHT22;54375;48.298;11.238;2022-09-13T13:10:29;31.10;36.10
50690;DHT22;54375;48.298;11.238;2022-09-13T13:13:34;30.70;36.20
50690;DHT22;54375;48.298;11.238;2022-09-13T13:16:36;30.50;37.10
50690;DHT22;54375;48.298;11.238;2022-09-13T13:19:38;30.10;35.70
50690;DHT22;54375;48.298;11.238;2022-09-13T13:22:49;30.00;36.80
50690;DHT22;54375;48.298;11.238;2022-09-13T13:26:07;30.20;35.70
50690;DHT22;54375;48.298;11.238;2022-09-13T13:29:15;30.30;35.90
50690;DHT22;54375;48.298;11.238;2022-09-13T13:32:16;30.60;34.40
50690;DHT22;54375;48.298;11.238;2022-09-13T13:35:28;31.10;34.30
50690;DHT22;54375;48.298;11.238;2022-09-13T13:38:47;31.60;32.40
50690;DHT22;54375;48.298;11.238;2022-09-13T13:41:52;31.90;32.30
50690;DHT22;54375;48.298;11.238;2022-09-13T13:45:16;32.00;32.30
50690;DHT22;54375;48.298;11.238;2022-09-13T13:48:34;31.90;32.00
50690;DHT22;54375;48.298;11.238;2022-09-13T13:51:35;31.20;31.10
50690;DHT22;54375;48.298;11.238;2022-09-13T13:54:57;30.60;32.80
50690;DHT22;54375;48.298;11.238;2022-09-13T13:58:02;30.30;33.80
50690;DHT22;54375;48.298;11.238;2022-09-13T14:01:03;30.30;34.80
50690;DHT22;54375;48.298;11.238;2022-09-13T14:04:37;30.50;35.40
50690;DHT22;54375;48.298;11.238;2022-09-13T14:07:57;30.70;33.20
50690;DHT22;54375;48.298;11.238;2022-09-13T14:11:07;30.40;32.30
50690;DHT22;54375;48.298;11.238;2022-09-13T14:14:24;29.80;34.60
50690;DHT22;54375;48.298;11.238;2022-09-13T14:17:46;29.20;34.30
50690;DHT22;54375;48.298;11.238;2022-09-13T14:20:59;29.10;35.20
50690;DHT22;54375;48.298;11.238;2022-09-13T14:24:16;29.40;35.60
50690;DHT22;54375;48.298;11.238;2022-09-13T14:27:20;29.60;35.60
50690;DHT22;54375;48.298;11.238;2022-09-13T14:30:24;29.60;35.20
50690;DHT22;54375;48.298;11.238;2022-09-13T14:33:27;30.00;35.40
50690;DHT22;54375;48.298;11.238;2022-09-13T14:36:29;30.50;35.30
50690;DHT22;54375;48.298;11.238;2022-09-13T14:39:30;30.90;34.20
50690;DHT22;54375;48.298;11.238;2022-09-13T14:42:38;31.00;33.40
50690;DHT22;54375;48.298;11.238;2022-09-13T14:45:43;30.70;32.50
50690;DHT22;54375;48.298;11.238;2022-09-13T14:48:47;30.10;33.10
50690;DHT22;54375;48.298;11.238;2022-09-13T14:51:53;29.90;33.60
50690;DHT22;54375;48.298;11.238;2022-09-13T14:54:57;29.50;33.50
50690;DHT22;54375;48.298;11.238;2022-09-13T14:58:01;28.90;34.40
50690;DHT22;54375;48.298;11.238;2022-09-13T15:01:05;28.80;35.00
50690;DHT22;54375;48.298;11.238;2022-09-13T15:04:07;28.50;35.00
50690;DHT22;54375;48.298;11.238;2022-09-13T15:07:17;28.20;36.10
50690;DHT22;54375;48.298;11.238;2022-09-13T15:10:24;28.00;36.30
50690;DHT22;54375;48.298;11.238;2022-09-13T15:13:25;27.90;36.60
50690;DHT22;54375;48.298;11.238;2022-09-13T15:16:28;27.90;37.50
50690;DHT22;54375;48.298;11.238;2022-09-13T15:19:37;27.90;37.70
50690;DHT22;54375;48.298;11.238;2022-09-13T15:22:41;27.90;37.90
50690;DHT22;54375;48.298;11.238;2022-09-13T15:25:51;28.00;38.20
50690;DHT22;54375;48.298;11.238;2022-09-13T15:28:54;28.20;38.40
50690;DHT22;54375;48.298;11.238;2022-09-13T15:31:59;28.20;38.20
50690;DHT22;54375;48.298;11.238;2022-09-13T15:35:01;28.30;38.70
50690;DHT22;54375;48.298;11.238;2022-09-13T15:38:14;28.30;38.00
50690;DHT22;54375;48.298;11.238;2022-09-13T15:41:18;28.10;37.80
50690;DHT22;54375;48.298;11.238;2022-09-13T15:44:18;27.90;38.30
50690;DHT22;54375;48.298;11.238;2022-09-13T15:47:21;27.70;39.30
50690;DHT22;54375;48.298;11.238;2022-09-13T15:50:23;27.60;40.10
50690;DHT22;54375;48.298;11.238;2022-09-13T15:53:25;27.50;40.60
50690;DHT22;54375;48.298;11.238;2022-09-13T15:56:26;27.50;41.10
50690;DHT22;54375;48.298;11.238;2022-09-13T15:59:27;27.50;41.40
50690;DHT22;54375;48.298;11.238;2022-09-13T16:02:30;27.40;41.80
50690;DHT22;54375;48.298;11.238;2022-09-13T16:05:32;27.20;42.30
50690;DHT22;54375;48.298;11.238;2022-09-13T16:08:32;27.00;42.70
50690;DHT22;54375;48.298;11.238;2022-09-13T16:11:33;26.80;43.40
50690;DHT22;54375;48.298;11.238;2022-09-13T16:14:34;26.70;43.90
50690;DHT22;54375;48.298;11.238;2022-09-13T16:17:36;26.70;44.40
50690;DHT22;54375;48.298;11.238;2022-09-13T16:20:36;26.60;45.20
50690;DHT22;54375;48.298;11.238;2022-09-13T16:23:37;26.40;45.40
50690;DHT22;54375;48.298;11.238;2022-09-13T16:26:38;26.20;45.80
50690;DHT22;54375;48.298;11.238;2022-09-13T16:29:39;26.10;45.80
50690;DHT22;54375;48.298;11.238;2022-09-13T16:32:41;26.10;46.10
50690;DHT22;54375;48.298;11.238;2022-09-13T16:35:42;26.00;45.80
50690;DHT22;54375;48.298;11.238;2022-09-13T16:38:43;26.00;45.60
50690;DHT22;54375;48.298;11.238;2022-09-13T16:41:44;25.90;46.30
50690;DHT22;54375;48.298;11.238;2022-09-13T16:44:44;25.80;47.90
50690;DHT22;54375;48.298;11.238;2022-09-13T16:47:46;25.70;48.90
50690;DHT22;54375;48.298;11.238;2022-09-13T16:50:47;25.60;49.70
50690;DHT22;54375;48.298;11.238;2022-09-13T16:53:49;25.50;50.20
50690;DHT22;54375;48.298;11.238;2022-09-13T16:56:50;25.40;50.20
50690;DHT22;54375;48.298;11.238;2022-09-13T16:59:51;25.30;49.70
50690;DHT22;54375;48.298;11.238;2022-09-13T17:02:53;25.10;49.80
50690;DHT22;54375;48.298;11.238;2022-09-13T17:05:58;25.00;51.30
50690;DHT22;54375;48.298;11.238;2022-09-13T17:09:01;24.90;53.10
50690;DHT22;54375;48.298;11.238;2022-09-13T17:12:03;24.70;54.20
50690;DHT22;54375;48.298;11.238;2022-09-13T17:15:05;24.50;54.60
50690;DHT22;54375;48.298;11.238;2022-09-13T17:18:07;24.40;54.60
50690;DHT22;54375;48.298;11.238;2022-09-13T17:21:08;24.30;54.90
50690;DHT22;54375;48.298;11.238;2022-09-13T17:24:09;24.10;56.00
50690;DHT22;54375;48.298;11.238;2022-09-13T17:27:10;24.00;57.40
50690;DHT22;54375;48.298;11.238;2022-09-13T17:30:12;23.80;58.20
50690;DHT22;54375;48.298;11.238;2022-09-13T17:33:14;23.70;59.00
50690;DHT22;54375;48.298;11.238;2022-09-13T17:36:15;23.50;59.60
50690;DHT22;54375;48.298;11.238;2022-09-13T17:39:16;23.30;60.50
50690;DHT22;54375;48.298;11.238;2022-09-13T17:42:17;23.20;60.90
50690;DHT22;54375;48.298;11.238;2022-09-13T17:45:18;23.10;61.30
50690;DHT22;54375;48.298;11.238;2022-09-13T17:48:20;23.00;61.40
50690;DHT22;54375;48.298;11.238;2022-09-13T17:51:22;22.90;61.20
50690;DHT22;54375;48.298;11.238;2022-09-13T17:54:23;22.80;61.10
50690;DHT22;54375;48.298;11.238;2022-09-13T17:57:24;22.70;61.90
50690;DHT22;54375;48.298;11.238;2022-09-13T18:00:25;22.50;61.40
50690;DHT22;54375;48.298;11.238;2022-09-13T18:03:27;22.50;61.90
50690;DHT22;54375;48.298;11.238;2022-09-13T18:06:28;22.40;62.10
50690;DHT22;54375;48.298;11.238;2022-09-13T18:09:29;22.30;62.20
50690;DHT22;54375;48.298;11.238;2022-09-13T18:12:30;22.20;62.80
50690;DHT22;54375;48.298;11.238;2022-09-13T18:15:31;22.10;63.60
50690;DHT22;54375;48.298;11.238;2022-09-13T18:18:34;21.90;65.60
50690;DHT22;54375;48.298;11.238;2022-09-13T18:21:35;21.80;66.70
50690;DHT22;54375;48.298;11.238;2022-09-13T18:24:36;21.60;68.20
50690;DHT22;54375;48.298;11.238;2022-09-13T18:27:37;21.50;68.00
50690;DHT22;54375;48.298;11.238;2022-09-13T18:30:38;21.40;68.20
50690;DHT22;54375;48.298;11.238;2022-09-13T18:33:40;21.30;68.40
50690;DHT22;54375;48.298;11.238;2022-09-13T18:36:41;21.20;68.60
50690;DHT22;54375;48.298;11.238;2022-09-13T18:39:42;21.00;68.90
50690;DHT22;54375;48.298;11.238;2022-09-13T18:42:43;21.00;69.00
50690;DHT22;54375;48.298;11.238;2022-09-13T18:45:52;20.90;68.80
50690;DHT22;54375;48.298;11.238;2022-09-13T18:48:55;20.80;68.60
50690;DHT22;54375;48.298;11.238;2022-09-13T18:51:56;20.70;68.60
50690;DHT22;54375;48.298;11.238;2022-09-13T18:54:56;20.60;69.40
50690;DHT22;54375;48.298;11.238;2022-09-13T18:57:57;20.50;70.20
50690;DHT22;54375;48.298;11.238;2022-09-13T19:01:02;20.40;70.30
50690;DHT22;54375;48.298;11.238;2022-09-13T19:04:05;20.30;69.80
50690;DHT22;54375;48.298;11.238;2022-09-13T19:07:06;20.30;69.50
50690;DHT22;54375;48.298;11.238;2022-09-13T19:10:07;20.20;69.20
50690;DHT22;54375;48.298;11.238;2022-09-13T19:13:08;20.20;69.30
50690;DHT22;54375;48.298;11.238;2022-09-13T19:16:11;20.20;69.60
50690;DHT22;54375;48.298;11.238;2022-09-13T19:19:13;20.00;70.80
50690;DHT22;54375;48.298;11.238;2022-09-13T19:22:14;20.00;70.50
50690;DHT22;54375;48.298;11.238;2022-09-13T19:25:15;19.90;70.90